Marina, Croatia
Current Conditions -  °F | °C
As of 5:30 AM on Wednesday 22 Oct 2014 (Local Time) from LDSP Reporting Station
Scattered Clouds Scattered Clouds  
Wind Chill: 20°   Ceiling: Unl
Heat Index: 20°   Visibility: 6mi
Dew Point: 17°   Wind: 8mph
Humidity: 83%   Direction: 100°E
Pressure: 29.59"   Gusts: NA
Location:  43.51°N, 16.1°E
Report Text: LDSP 220430Z 10007KT 030V160 9999 FEW020 SCT040 20/17 Q1002 NOSIG
Loading
Personal Weather Stations






























Interactive Weather Map
Tropical Storm Tracking
New forecast layout! Learn more

10-Day Weather Forecast

Advertisements
Track Severe Weather on mobile